Virtual Washington ARTCC

Weather

KBWI 231254Z 19007KT 9SM SCT008 BKN015 OVC027 23/23 A2985 RMK AO2 RAE11 SLP106 P0003 T02280228
KDCA 231317Z 20014G19KT 10SM BKN016 OVC080 24/23 A2985 RMK AO2 T02440233
KIAD 231252Z 20008KT 10SM BKN010 BKN013 OVC040 23/21 A2985 RMK AO2 SLP105 T02280211
KORF 231251Z 21011KT 10SM OVC090 26/23 A2997 RMK AO2 RAB14E28 SLP147 P0000 T02560228
KRDU 231251Z 23008KT 6SM BR BKN007 OVC014 24/23 A3001 RMK AO2 RAE18 SLP158 P0000 T02440233

Events



No Events on the scope. Click to learn more about the ZDC events department. Details


ZDC Activity

No controllers online.

News



The information contained on all pages of this website is to be used for flight simulation purposes only on the VATSIM network. It is not intended nor should it be used for real world navigation.This site is not affiliated with the FAA, the actual Washington Center or any governing aviation body. All content contained herein is approved only for use on the VATSIM network. ©2016 Virtual Washington ARTCC -- Source Code © 2016-2017 W. Guisbond and R. Rump.